Latest Coastal Weather Observations for Avalon

IDV60701

Issued at 12:51 pm EST Monday 16 September 2019 (issued every 10 minutes, with the page automatically refreshed every 10 minutes)

About coastal observations | Map of coastal stations | Coastal observations for VIC | Marine services | Other Formats
Station Details ID: 087113 Name: AVALON AIRPORT Lat: -38.03 Lon: 144.48 Height: 10.6 m
Data from the previous 72 hours. | See also: Recent months at Avalon
Date/Time
EST
Wind Sea
Height
m
Swell Vis
km
Cloud Weather Temp
°C
Press
hPa
Rain since
9am
mm
Dir  Spd
kts
Gust
kts
Height
m
Period
s
Dir
16/12:30pm S 17 21 - - - - 10 Partly cloudy - 12.1 1021.7 0.0
16/12:00pm SSW 17 22 - - - - 10 Partly cloudy - 12.3 1021.7 0.0
16/11:30am SSW 19 26 - - - - 10 Partly cloudy - 11.9 1021.6 0.0
16/11:00am SSW 16 21 - - - - 10 Partly cloudy - 12.4 1021.3 0.0
16/10:30am SSW 17 22 - - - - 10 Partly cloudy - 12.5 1021.3 0.0
16/10:00am SSW 17 22 - - - - 10 Partly cloudy - 11.1 1021.0 0.0
16/09:30am SW 11 16 - - - - 10 - - 11.5 1021.0 0.0
16/09:00am WSW 7 9 - - - - 10 Mostly clear - 9.8 1020.9 8.2
16/08:30am WSW 9 11 - - - - 10 Partly cloudy - 10.1 1020.4 8.2
16/08:00am W 7 8 - - - - 10 Partly cloudy - 9.5 1020.1 8.2
16/07:30am W 8 9 - - - - 10 Partly cloudy - 8.2 1019.9 8.2
16/07:00am W 7 9 - - - - 10 - - 7.1 1019.6 8.2
16/06:30am W 7 8 - - - - 10 Partly cloudy - 6.8 1019.1 8.2
16/06:00am W 7 8 - - - - 10 Mostly clear - 7.7 1018.6 8.2
16/05:30am W 7 8 - - - - 10 Partly cloudy - 8.3 1018.2 8.2
16/05:00am WNW 11 14 - - - - 10 Partly cloudy - 9.3 1017.9 8.2
16/04:30am W 8 9 - - - - 10 Partly cloudy - 9.2 1017.5 8.2
16/04:00am W 9 11 - - - - 10 Partly cloudy - 9.2 1017.3 8.2
16/03:30am WNW 11 14 - - - - 10 Partly cloudy - 10.0 1017.3 8.2
16/03:00am WNW 11 14 - - - - 10 Cloudy - 10.1 1017.0 8.2
16/02:30am W 9 11 - - - - 10 Cloudy - 10.2 1016.9 8.2
16/02:00am W 9 12 - - - - 10 Partly cloudy - 10.2 1017.0 8.2
16/01:30am W 11 13 - - - - 10 Partly cloudy - 10.0 1016.7 8.2
16/01:10am WNW 11 17 - - - - 10 Partly cloudy - 10.0 1016.6 8.2
16/01:00am WNW 10 13 - - - - 10 Partly cloudy - 10.0 1017.1 7.6
16/12:53am W 9 11 - - - - 10 Partly cloudy - 10.0 1017.0 7.6
16/12:43am W 10 14 - - - - 6 Partly cloudy - 10.0 1016.7 7.4
16/12:39am WNW 10 14 - - - - 7 Partly cloudy - 10.0 1016.5 7.2
16/12:30am W 10 13 - - - - 10 Partly cloudy - 10.2 1016.7 6.4
16/12:06am W 13 21 - - - - 10 Partly cloudy - 10.6 1016.4 6.0
16/12:00am W 14 21 - - - - 10 Cloudy Recent precip. 10.6 1016.3 6.0
 
Date/Time
EST
Wind Sea
Height
m
Swell Vis
km
Cloud Weather Temp
°C
Press
hPa
Rain since
9am
mm
Dir  Spd
kts
Gust
kts
Height
m
Period
s
Dir
15/11:30pm SW 15 19 - - - - 10 Partly cloudy - 11.4 1016.0 6.0
15/11:12pm W 15 20 - - - - 10 Partly cloudy - 12.9 1015.4 5.6
15/11:04pm WNW 12 20 - - - - 8 Partly cloudy - 13.6 1014.9 5.6
15/11:00pm WNW 9 16 - - - - 5 Partly cloudy - 13.8 1014.9 5.6
15/10:55pm WNW 9 11 - - - - 6 Partly cloudy - 13.8 1015.2 5.2
15/10:30pm WNW 8 10 - - - - 10 Cloudy - 14.0 1014.3 4.4
15/10:00pm NW 10 13 - - - - 10 Cloudy - 14.2 1014.5 4.4
15/09:30pm WNW 11 17 - - - - 10 Partly cloudy - 14.5 1015.3 4.2
15/09:00pm NW 10 14 - - - - 10 Mostly cloudy - 14.7 1014.5 3.8
15/08:30pm NW 10 12 - - - - 10 Cloudy - 14.8 1014.7 3.8
15/08:00pm NNW 11 16 - - - - 10 Partly cloudy - 14.6 1014.5 3.8
15/07:30pm NNW 9 13 - - - - 10 Cloudy - 14.6 1015.4 3.0
15/07:00pm NW 13 18 - - - - 10 Partly cloudy - 15.0 1015.6 2.2
15/06:35pm WNW 20 28 - - - - 10 Partly cloudy - 15.3 1016.4 2.0
15/06:30pm WNW 19 28 - - - - 10 Partly cloudy - 15.8 1016.3 2.0
15/06:29pm WNW 18 28 - - - - 10 Partly cloudy - 15.8 1016.3 2.0
15/06:27pm WNW 16 25 - - - - 8 Partly cloudy - 15.9 1016.3 1.6
15/06:17pm WNW 11 15 - - - - 6 Cloudy - 16.0 1016.4 1.4
15/06:00pm NW 9 11 - - - - 10 Cloudy - 17.0 1015.4 0.6
15/05:30pm NW 9 13 - - - - 10 Partly cloudy - 17.0 1014.8 0.6
15/05:00pm NNW 9 14 - - - - 10 Cloudy - 16.7 1014.0 0.6
15/04:30pm NNW 9 13 - - - - 10 Cloudy - 16.7 1014.4 0.6
15/04:00pm NW 12 15 - - - - 10 Partly cloudy - 17.5 1015.1 0.2
15/03:30pm NW 16 22 - - - - 10 Partly cloudy - 17.5 1015.1 0.2
15/03:00pm NW 11 19 - - - - 10 Cloudy - 20.7 1013.8 0.0
15/02:30pm NNW 13 18 - - - - 10 Cloudy - 20.9 1013.9 0.0
15/02:00pm NW 13 17 - - - - 10 Cloudy - 21.0 1013.9 0.0
15/01:30pm NW 13 19 - - - - 10 Cloudy - 19.6 1014.6 0.0
15/01:00pm W 11 15 - - - - 10 Partly cloudy - 19.3 1015.7 0.0
15/12:30pm WSW 4 7 - - - - 10 Cloudy - 19.4 1015.0 0.0
15/12:00pm SW 7 8 - - - - 10 Mostly cloudy - 19.0 1015.8 0.0
15/11:30am W 5 13 - - - - 10 Partly cloudy - 19.5 1015.8 0.0
15/11:00am NNE 1 4 - - - - 10 Cloudy - 17.9 1015.9 0.0
15/10:30am ENE 7 8 - - - - 10 Cloudy - 18.8 1016.1 0.0
15/10:00am NNE 10 13 - - - - 10 Partly cloudy - 18.7 1016.2 0.0
15/09:30am NNE 11 15 - - - - 10 Partly cloudy - 18.7 1016.5 0.0
15/09:00am N 11 17 - - - - 10 Cloudy - 18.3 1017.0 0.2
15/08:30am NNE 7 9 - - - - 10 Cloudy - 16.1 1017.5 0.2
15/08:00am N 8 10 - - - - 10 Partly cloudy - 16.2 1017.8 0.2
15/07:30am NNE 9 12 - - - - 10 Cloudy - 15.7 1017.3 0.2
15/07:00am NE 7 9 - - - - 10 Cloudy - 14.1 1017.6 0.2
15/06:30am NE 6 7 - - - - 10 Cloudy - 13.8 1017.3 0.2
15/06:00am N 8 11 - - - - 10 Cloudy - 15.1 1017.0 0.2
15/05:30am N 11 14 - - - - 10 Partly cloudy - 14.7 1016.6 0.2
15/05:00am N 9 10 - - - - 10 Partly cloudy - 14.8 1016.6 0.2
15/04:30am NW 9 11 - - - - 10 Partly cloudy - 15.4 1016.8 0.2
15/04:00am NNW 10 13 - - - - 10 Cloudy - 16.4 1017.1 0.0
15/03:30am NW 14 18 - - - - 10 Partly cloudy - 17.2 1017.8 0.0
15/03:00am NW 6 10 - - - - 10 Cloudy - 15.8 1017.7 0.0
15/02:30am N 5 6 - - - - 10 Partly cloudy - 14.4 1018.0 0.0
15/02:00am NNE 7 8 - - - - 10 Partly cloudy - 14.8 1018.6 0.0
15/01:30am N 7 8 - - - - 10 Partly cloudy - 14.6 1019.0 0.0
15/01:00am NNE 6 7 - - - - 10 Partly cloudy - 13.1 1019.4 0.0
15/12:30am ENE 6 7 - - - - 10 - - 13.3 1019.5 0.0
15/12:00am ENE 5 7 - - - - 10 Cloudy - 13.4 1019.9 0.0
 
Date/Time
EST
Wind Sea
Height
m
Swell Vis
km
Cloud Weather Temp
°C
Press
hPa
Rain since
9am
mm
Dir  Spd
kts
Gust
kts
Height
m
Period
s
Dir
14/11:30pm ENE 4 5 - - - - 10 Partly cloudy - 12.9 1020.3 0.0
14/11:00pm ESE 4 5 - - - - 10 Cloudy - 12.8 1020.6 0.0
14/10:30pm SW 5 5 - - - - 10 Partly cloudy - 13.0 1020.7 0.0
14/10:00pm SE 3 4 - - - - 10 Partly cloudy - 12.4 1020.8 0.0
14/09:30pm NNW 4 4 - - - - 10 Partly cloudy - 13.8 1020.8 0.0
14/09:00pm N 5 6 - - - - 10 Cloudy - 14.3 1020.9 0.0
14/08:30pm N 4 5 - - - - 10 Cloudy - 14.4 1021.0 0.0
14/08:00pm NNW 4 6 - - - - 10 Partly cloudy - 13.8 1021.4 0.0
14/07:30pm N 3 5 - - - - 10 Partly cloudy - 13.6 1021.2 0.0
14/07:00pm N 7 9 - - - - 10 Partly cloudy - 12.4 1021.3 0.0
14/06:30pm NNE 1 5 - - - - 10 - - 13.0 1021.4 0.0
14/06:00pm ENE 4 5 - - - - 10 - - 13.9 1021.5 0.0
14/05:30pm E 4 6 - - - - 10 - - 15.4 1021.5 0.0
14/05:00pm E 4 6 - - - - 10 - - 16.2 1021.9 0.0
14/04:30pm ENE 7 8 - - - - 10 - - 16.3 1021.9 0.0
14/04:00pm E 7 9 - - - - 10 - - 16.0 1022.3 0.0
14/03:30pm ESE 8 10 - - - - 10 - - 15.9 1022.5 0.0
14/03:00pm ESE 8 10 - - - - 10 - - 16.5 1022.9 0.0
14/02:30pm E 7 11 - - - - 10 - - 16.9 1023.2 0.0
14/02:00pm ESE 6 7 - - - - 10 - - 17.1 1023.5 0.0
14/01:30pm NW 5 11 - - - - 10 - - 17.4 1023.8 0.0
14/01:00pm WNW 6 10 - - - - 10 - - 17.0 1024.2 0.0
14/12:30pm NNW 6 10 - - - - 10 - - 15.9 1024.7 0.0
14/12:00pm WNW 6 9 - - - - 10 - - 15.9 1025.2 0.0
14/11:30am NW 6 9 - - - - 10 Partly cloudy - 15.3 1025.7 0.0
14/11:00am W 6 9 - - - - 10 Partly cloudy - 14.1 1025.9 0.0
14/10:30am W 5 9 - - - - 10 Partly cloudy - 13.9 1026.3 0.0
14/10:00am W 7 10 - - - - 10 Partly cloudy - 13.3 1026.5 0.0
14/09:30am W 9 11 - - - - 10 Partly cloudy - 12.4 1026.8 0.0
14/09:00am W 10 13 - - - - 10 - - 12.1 1026.9 0.0
14/08:30am WNW 10 12 - - - - 10 - - 10.8 1027.0 0.0
14/08:00am WNW 9 11 - - - - 10 - - 9.3 1026.6 0.0
14/07:30am WNW 7 10 - - - - 10 - - 7.7 1026.4 0.0
14/07:00am NW 5 6 - - - - 10 - - 5.8 1026.0 0.0
14/06:30am NW 6 7 - - - - 10 Cloudy - 5.7 1026.1 0.0
14/06:00am NW 8 9 - - - - 10 Partly cloudy - 6.5 1026.1 0.0
14/05:30am NW 9 11 - - - - 10 - - 7.2 1025.8 0.0
14/05:00am WNW 9 11 - - - - 10 Cloudy - 7.3 1025.7 0.0
14/04:30am WNW 9 11 - - - - 10 Partly cloudy - 7.5 1025.3 0.0
14/04:00am WNW 8 10 - - - - 10 Partly cloudy - 7.9 1025.4 0.0
14/03:30am WNW 7 9 - - - - 10 - - 7.3 1025.5 0.0
14/03:00am WNW 8 9 - - - - 10 - - 7.6 1025.5 0.0
14/02:30am WNW 10 14 - - - - 10 Partly cloudy - 8.8 1025.5 0.0
14/02:00am WNW 9 11 - - - - 10 Partly cloudy - 8.3 1025.7 0.0
14/01:30am WNW 9 11 - - - - 10 Partly cloudy - 8.6 1025.7 0.0
14/01:00am WNW 9 11 - - - - 10 Partly cloudy - 8.8 1025.6 0.0
14/12:30am WNW 6 8 - - - - 10 Partly cloudy - 8.5 1025.7 0.0
14/12:00am W 9 11 - - - - 10 Mostly clear - 9.4 1025.6 0.0
 
Date/Time
EST
Wind Sea
Height
m
Swell Vis
km
Cloud Weather Temp
°C
Press
hPa
Rain since
9am
mm
Dir  Spd
kts
Gust
kts
Height
m
Period
s
Dir
13/11:30pm WNW 10 13 - - - - 10 - - 9.9 1025.5 0.0
13/11:00pm WNW 11 13 - - - - 10 Partly cloudy - 10.2 1025.5 0.0
13/10:30pm WNW 9 12 - - - - 10 Partly cloudy - 10.0 1025.4 0.0
13/10:00pm W 10 11 - - - - 10 Partly cloudy - 10.3 1025.1 0.0
13/09:30pm W 9 13 - - - - 10 Partly cloudy - 11.3 1025.0 0.0
13/09:00pm WSW 12 15 - - - - 10 - - 12.5 1024.6 0.0
13/08:30pm W 12 18 - - - - 10 Partly cloudy - 12.7 1024.3 0.0
13/08:00pm WSW 12 15 - - - - 10 Partly cloudy - 13.6 1024.0 0.0
13/07:30pm WSW 15 21 - - - - 10 Cloudy - 14.4 1023.5 0.0
13/07:00pm WSW 20 28 - - - - 10 Partly cloudy - 14.9 1022.9 0.0
13/06:56pm W 17 27 - - - - 10 Partly cloudy - 15.4 1022.8 0.0
13/06:30pm W 13 20 - - - - 10 Cloudy - 15.9 1022.2 0.0
13/06:00pm W 11 18 - - - - 10 Cloudy - 16.2 1022.1 0.0
13/05:30pm W 9 13 - - - - 10 Cloudy - 16.3 1021.7 0.0
13/05:00pm WNW 10 14 - - - - 10 Cloudy - 16.5 1021.3 0.0
13/04:30pm WNW 13 16 - - - - 10 Partly cloudy - 16.7 1021.3 0.0
13/04:00pm WNW 16 21 - - - - 10 Partly cloudy - 17.3 1021.0 0.0
13/03:30pm WNW 13 17 - - - - 10 Partly cloudy - 16.7 1021.1 0.0
13/03:00pm WNW 12 15 - - - - 10 Cloudy - 16.1 1021.4 0.0
13/02:30pm W 8 11 - - - - 10 Cloudy - 15.6 1022.0 0.0
13/02:00pm WNW 6 8 - - - - 10 Partly cloudy - 14.4 1021.9 0.0
13/01:30pm W 7 9 - - - - 10 Cloudy - 14.0 1022.2 0.0
13/01:00pm W 11 15 - - - - 10 - - 13.5 1022.8 0.0

Other formats

Comma delimited format used in spreadsheet applications
http://www.bom.gov.au/fwo/IDV60701/IDV60701.94854.axf

JavaScript Object Notation format (JSON) in row-major order
http://www.bom.gov.au/fwo/IDV60701/IDV60701.94854.json

Data quality

Most of these data are generated automatically and are frequently updated. Quality checks on data are not normally performed. It is possible for incorrect values to appear. Refer to information at About Latest Weather Observations and please check the disclaimer before using these data.